Ocotillo, California
Current Conditions -  °F | °C
As of 10:56 PM on Monday 20 Oct 2014 (Local Time) from KNJK Reporting Station
Few Clouds Few Clouds  
Wind Chill: 79°   Ceiling: Unl
Heat Index: 79°   Visibility: 10mi
Dew Point: 52°   Wind: 10mph
Humidity: 39%   Direction: 250°WSW
Pressure: 29.77"   Gusts: NA
Location:  32.74°N, 115.99°W
Report Text: KNJK 210556Z 25009KT 10SM FEW100 FEW200 26/11 A2977 RMK AO2 SLP097 T02610111 10344 20256 51009 $
Loading
Personal Weather Stations






























Interactive Weather Map New forecast layout! Learn more

10-Day Weather Forecast

Advertisements
Track Severe Weather on mobile